createdAt,value
2016-09-18T00:00:02.734Z,91.86
2016-09-18T00:01:02.711Z,92.33
2016-09-18T00:02:02.694Z,92.43
2016-09-18T00:03:02.670Z,92.33
2016-09-18T00:04:02.649Z,92.43
2016-09-18T00:05:02.633Z,92.43
2016-09-18T00:06:02.611Z,92.53
2016-09-18T00:07:02.588Z,92.24
2016-09-18T00:08:02.565Z,92.24
2016-09-18T00:09:02.550Z,92.24
2016-09-18T00:10:02.530Z,92.72
2016-09-18T00:11:02.507Z,92.53
2016-09-18T00:12:02.490Z,92.53
2016-09-18T00:13:02.465Z,91.96
2016-09-18T00:14:02.445Z,92.14
2016-09-18T00:15:02.423Z,92.14
2016-09-18T00:16:02.403Z,92.24
2016-09-18T00:17:02.383Z,91.66
2016-09-18T00:18:02.362Z,91.86
2016-09-18T00:19:02.344Z,91.76
2016-09-18T00:20:02.321Z,92.14
2016-09-18T00:21:02.301Z,91.96
2016-09-18T00:22:02.284Z,91.76
2016-09-18T00:23:02.259Z,91.66
2016-09-18T00:24:02.239Z,91.96
2016-09-18T00:25:02.219Z,91.76
2016-09-18T00:26:02.199Z,91.96
2016-09-18T00:27:02.179Z,91.76
2016-09-18T00:28:02.158Z,91.66
2016-09-18T00:29:02.136Z,91.66
2016-09-18T00:30:02.121Z,92.05
2016-09-18T00:31:02.094Z,91.47
2016-09-18T00:32:02.076Z,91.96
2016-09-18T00:33:02.058Z,92.05
2016-09-18T00:34:02.035Z,91.57
2016-09-18T00:35:02.063Z,91.66
2016-09-18T00:36:01.992Z,91.33
2016-09-18T00:37:01.973Z,91.57
2016-09-18T00:38:01.959Z,91.33
2016-09-18T00:39:01.929Z,91.66
2016-09-18T00:40:01.910Z,91.81
2016-09-18T00:41:01.888Z,91.42
2016-09-18T00:42:01.870Z,91.57
2016-09-18T00:43:01.845Z,91.52
2016-09-18T00:44:01.827Z,91.42
2016-09-18T00:45:01.808Z,91.42
2016-09-18T00:46:01.786Z,91.62
2016-09-18T00:47:01.764Z,91.81
2016-09-18T00:48:01.742Z,91.52
2016-09-18T00:49:01.724Z,91.62
2016-09-18T00:50:01.702Z,91.42
2016-09-18T00:51:01.977Z,91.42
2016-09-18T00:52:01.657Z,91.52
2016-09-18T00:53:01.638Z,91.52
2016-09-18T00:54:01.616Z,91.62
2016-09-18T00:55:01.600Z,91.62
2016-09-18T00:56:01.575Z,90.85
2016-09-18T00:57:01.555Z,91.24
2016-09-18T00:58:01.538Z,91.24
2016-09-18T00:59:01.511Z,91.33
2016-09-18T01:00:01.493Z,91.33
2016-09-18T01:01:01.469Z,91.42
2016-09-18T01:02:01.449Z,91.05
2016-09-18T01:03:01.436Z,91.14
2016-09-18T01:04:01.411Z,91.05
2016-09-18T01:05:01.389Z,91.33
2016-09-18T01:06:01.363Z,91.19
2016-09-18T01:07:01.644Z,91.48
2016-09-18T01:08:01.321Z,91.38
2016-09-18T01:09:01.299Z,91.28
2016-09-18T01:10:01.280Z,91
2016-09-18T01:11:01.259Z,90.9
2016-09-18T01:12:01.244Z,91
2016-09-18T01:13:01.217Z,91.38
2016-09-18T01:14:01.194Z,91.38
2016-09-18T01:15:01.175Z,91.19
2016-09-18T01:16:01.155Z,91.28
2016-09-18T01:17:01.132Z,91.48
2016-09-18T01:18:01.111Z,91.86
2016-09-18T01:19:01.091Z,91.67
2016-09-18T01:20:01.067Z,91.77
2016-09-18T01:21:01.044Z,91.96
2016-09-18T01:22:01.024Z,91.57
2016-09-18T01:23:01.006Z,91.77
2016-09-18T01:24:00.980Z,91.77
2016-09-18T01:25:00.962Z,91.86
2016-09-18T01:26:00.941Z,91.77
2016-09-18T01:27:00.920Z,91.77
2016-09-18T01:28:00.897Z,91.57
2016-09-18T01:29:00.876Z,91.38
2016-09-18T01:30:00.855Z,91.57
2016-09-18T01:31:00.831Z,91.86
2016-09-18T01:32:00.817Z,91.86
2016-09-18T01:33:00.791Z,91.86
2016-09-18T01:34:00.772Z,91.96
2016-09-18T01:35:00.751Z,91.77
2016-09-18T01:36:00.725Z,91.57
2016-09-18T01:37:00.702Z,91.77
2016-09-18T01:38:00.685Z,91.86
2016-09-18T01:39:00.663Z,91.86
2016-09-18T01:40:00.642Z,91.77
2016-09-18T01:41:00.622Z,91.57
2016-09-18T01:42:00.594Z,91.09
2016-09-18T01:43:00.575Z,91.57
2016-09-18T01:44:00.556Z,91.72
2016-09-18T01:45:00.537Z,91.57
2016-09-18T01:46:00.513Z,91.86
2016-09-18T01:47:00.490Z,91.67
2016-09-18T01:48:00.469Z,91.57
2016-09-18T01:49:00.445Z,92.01
2016-09-18T01:50:00.428Z,91.63
2016-09-18T01:51:00.404Z,91.53
2016-09-18T01:52:00.388Z,92.01
2016-09-18T01:53:00.362Z,91.53
2016-09-18T01:54:00.342Z,91.82
2016-09-18T01:55:00.319Z,91.34
2016-09-18T01:56:00.299Z,91.53
2016-09-18T01:57:00.278Z,91.63
2016-09-18T01:58:00.255Z,91.63
2016-09-18T01:59:00.233Z,91.72
2016-09-18T02:00:00.212Z,91.34
2016-09-18T02:01:00.191Z,91.82
2016-09-18T02:02:00.169Z,91.43
2016-09-18T02:03:00.145Z,91.63
2016-09-18T02:04:00.125Z,91.53
2016-09-18T02:05:00.105Z,91.91
2016-09-18T02:06:00.090Z,91.72
2016-09-18T02:07:00.066Z,91.43
2016-09-18T02:08:00.039Z,91.53
2016-09-18T02:09:00.018Z,92.1
2016-09-18T02:09:59.996Z,92.1
2016-09-18T02:10:59.977Z,92.39
2016-09-18T02:11:59.952Z,92.1
2016-09-18T02:12:59.934Z,92.3
2016-09-18T02:13:59.910Z,92.01
2016-09-18T02:14:59.887Z,92.3
2016-09-18T02:15:59.866Z,92.01
2016-09-18T02:16:59.847Z,92.1
2016-09-18T02:17:59.823Z,92.2
2016-09-18T02:18:59.806Z,92.2
2016-09-18T02:19:59.780Z,92.2
2016-09-18T02:20:59.762Z,92.1
2016-09-18T02:21:59.735Z,92.58
2016-09-18T02:22:59.716Z,92.1
2016-09-18T02:23:59.694Z,92.2
2016-09-18T02:24:59.674Z,92.2
2016-09-18T02:25:59.649Z,92.2
2016-09-18T02:26:59.627Z,92.1
2016-09-18T02:27:59.608Z,91.91
2016-09-18T02:28:59.586Z,92.2
2016-09-18T02:29:59.566Z,92.3
2016-09-18T02:30:59.546Z,92.2
2016-09-18T02:31:59.520Z,92.3
2016-09-18T02:32:59.499Z,92.1
2016-09-18T02:33:59.477Z,92.49
2016-09-18T02:34:59.458Z,92.2
2016-09-18T02:35:59.432Z,92.1
2016-09-18T02:36:59.412Z,92.2
2016-09-18T02:37:59.393Z,92.3
2016-09-18T02:38:59.368Z,92.58
2016-09-18T02:39:59.349Z,92.2
2016-09-18T02:40:59.338Z,92.54
2016-09-18T02:41:59.302Z,92.82
2016-09-18T02:42:59.285Z,92.49
2016-09-18T02:43:59.261Z,92.77
2016-09-18T02:44:59.241Z,92.01
2016-09-18T02:45:59.221Z,92.39
2016-09-18T02:46:59.198Z,92.49
2016-09-18T02:47:59.171Z,92.49
2016-09-18T02:48:59.153Z,92.2
2016-09-18T02:49:59.130Z,92.2
2016-09-18T02:50:59.110Z,92.49
2016-09-18T02:51:59.087Z,92.58
2016-09-18T02:52:59.064Z,92.49
2016-09-18T02:53:59.044Z,92.49
2016-09-18T02:54:59.317Z,92.68
2016-09-18T02:55:59.000Z,92.49
2016-09-18T02:56:58.979Z,92.2
2016-09-18T02:57:58.957Z,92.2
2016-09-18T02:58:58.939Z,92.49
2016-09-18T02:59:58.913Z,92.3
2016-09-18T03:00:58.894Z,91.96
2016-09-18T03:01:58.868Z,92.2
2016-09-18T03:02:58.849Z,92.58
2016-09-18T03:03:58.830Z,92.54
2016-09-18T03:04:58.811Z,92.15
2016-09-18T03:05:58.789Z,92.15
2016-09-18T03:06:58.763Z,91.96
2016-09-18T03:07:58.740Z,92.15
2016-09-18T03:08:58.729Z,92.44
2016-09-18T03:09:58.707Z,92.44
2016-09-18T03:10:58.684Z,92.82
2016-09-18T03:11:58.658Z,92.73
2016-09-18T03:12:58.638Z,92.73
2016-09-18T03:13:58.616Z,92.73
2016-09-18T03:14:58.593Z,92.73
2016-09-18T03:15:58.570Z,92.15
2016-09-18T03:16:58.547Z,92.82
2016-09-18T03:17:58.526Z,92.73
2016-09-18T03:18:58.506Z,92.44
2016-09-18T03:19:58.493Z,92.73
2016-09-18T03:20:58.463Z,92.54
2016-09-18T03:21:58.443Z,92.54
2016-09-18T03:22:58.419Z,92.54
2016-09-18T03:23:58.404Z,92.92
2016-09-18T03:24:58.376Z,92.25
2016-09-18T03:25:58.359Z,92.73
2016-09-18T03:26:58.335Z,92.92
2016-09-18T03:27:58.310Z,92.54
2016-09-18T03:28:58.288Z,92.54
2016-09-18T03:29:58.265Z,92.63
2016-09-18T03:30:58.239Z,92.73
2016-09-18T03:31:58.222Z,92.82
2016-09-18T03:32:58.204Z,92.82
2016-09-18T03:33:58.177Z,92.73
2016-09-18T03:34:58.152Z,92.54
2016-09-18T03:35:58.142Z,92.82
2016-09-18T03:36:58.112Z,92.92
2016-09-18T03:37:58.095Z,92.73
2016-09-18T03:38:58.067Z,92.92
2016-09-18T03:39:58.048Z,92.63
2016-09-18T03:40:58.020Z,93.59
2016-09-18T03:41:57.997Z,93.02
2016-09-18T03:42:57.983Z,93.3
2016-09-18T03:43:57.957Z,93.3
2016-09-18T03:44:57.944Z,93.21
2016-09-18T03:45:58.210Z,93.21
2016-09-18T03:46:57.889Z,93.4
2016-09-18T03:47:57.866Z,93.4
2016-09-18T03:48:57.848Z,93.21
2016-09-18T03:49:57.837Z,93.02
2016-09-18T03:50:57.801Z,93.21
2016-09-18T03:51:58.083Z,93.4
2016-09-18T03:52:57.757Z,93.21
2016-09-18T03:53:57.736Z,93.69
2016-09-18T03:54:57.739Z,93.59
2016-09-18T03:55:57.692Z,93.59
2016-09-18T03:56:57.670Z,93.59
2016-09-18T03:57:57.648Z,93.69
2016-09-18T03:58:57.627Z,93.78
2016-09-18T03:59:57.605Z,93.69
2016-09-18T04:00:57.580Z,93.59
2016-09-18T04:01:57.559Z,93.78
2016-09-18T04:02:57.540Z,93.78
2016-09-18T04:03:57.815Z,93.49
2016-09-18T04:04:57.492Z,93.4
2016-09-18T04:05:57.470Z,93.4
2016-09-18T04:06:57.448Z,93.59
2016-09-18T04:07:57.426Z,93.49
2016-09-18T04:08:57.404Z,93.59
2016-09-18T04:09:57.385Z,93.11
2016-09-18T04:10:57.362Z,93.49
2016-09-18T04:11:57.339Z,93.3
2016-09-18T04:12:57.319Z,93.11
2016-09-18T04:13:57.296Z,93.49
2016-09-18T04:14:57.274Z,93.49
2016-09-18T04:15:57.253Z,93.4
2016-09-18T04:16:57.230Z,93.21
2016-09-18T04:17:57.206Z,93.4
2016-09-18T04:18:57.186Z,93.49
2016-09-18T04:19:57.163Z,93.4
2016-09-18T04:20:57.143Z,93.4
2016-09-18T04:21:57.119Z,93.3
2016-09-18T04:22:57.097Z,93.59
2016-09-18T04:23:57.074Z,93.59
2016-09-18T04:24:57.056Z,93.4
2016-09-18T04:25:57.031Z,93.3
2016-09-18T04:26:57.010Z,93.3
2016-09-18T04:27:56.988Z,93.59
2016-09-18T04:28:56.969Z,93.3
2016-09-18T04:29:56.944Z,93.4
2016-09-18T04:30:56.933Z,93.21
2016-09-18T04:31:56.903Z,93.4
2016-09-18T04:32:56.879Z,93.4
2016-09-18T04:33:56.858Z,93.4
2016-09-18T04:34:56.836Z,93.88
2016-09-18T04:35:56.827Z,93.78
2016-09-18T04:36:56.796Z,93.69
2016-09-18T04:37:56.770Z,93.78
2016-09-18T04:38:56.748Z,93.59
2016-09-18T04:39:56.729Z,93.69
2016-09-18T04:40:56.703Z,93.88
2016-09-18T04:41:56.695Z,93.21
2016-09-18T04:42:56.663Z,93.59
2016-09-18T04:43:56.639Z,93.49
2016-09-18T04:44:56.619Z,93.59
2016-09-18T04:45:56.596Z,93.88
2016-09-18T04:46:56.574Z,93.69
2016-09-18T04:47:56.552Z,93.78
2016-09-18T04:48:56.529Z,93.59
2016-09-18T04:49:56.505Z,93.3
2016-09-18T04:50:56.487Z,93.88
2016-09-18T04:51:56.462Z,93.59
2016-09-18T04:52:56.440Z,93.59
2016-09-18T04:53:56.421Z,93.69
2016-09-18T04:54:56.399Z,93.88
2016-09-18T04:55:56.375Z,93.88
2016-09-18T04:56:56.355Z,93.4
2016-09-18T04:57:56.340Z,93.59
2016-09-18T04:58:56.310Z,93.21
2016-09-18T04:59:56.287Z,93.49
2016-09-18T05:00:56.268Z,93.3
2016-09-18T05:01:56.245Z,93.69
2016-09-18T05:02:56.520Z,93.3
2016-09-18T05:03:56.202Z,93.4
2016-09-18T05:04:56.182Z,93.21
2016-09-18T05:05:56.156Z,93.4
2016-09-18T05:06:56.135Z,93.88
2016-09-18T05:07:56.117Z,93.49
2016-09-18T05:08:56.088Z,93.69
2016-09-18T05:09:56.074Z,93.59
2016-09-18T05:10:56.049Z,93.4
2016-09-18T05:11:56.026Z,93.4
2016-09-18T05:12:56.005Z,93.59
2016-09-18T05:13:55.993Z,93.3
2016-09-18T05:14:55.963Z,93.69
2016-09-18T05:15:55.938Z,93.78
2016-09-18T05:16:55.918Z,93.4
2016-09-18T05:17:55.896Z,93.21
2016-09-18T05:18:55.873Z,93.02
2016-09-18T05:19:55.852Z,93.02
2016-09-18T05:20:55.827Z,93.3
2016-09-18T05:21:55.834Z,93.3
2016-09-18T05:22:55.783Z,93.21
2016-09-18T05:23:55.764Z,92.82
2016-09-18T05:24:55.746Z,93.4
2016-09-18T05:25:55.720Z,93.3
2016-09-18T05:26:55.698Z,93.4
2016-09-18T05:27:55.677Z,93.21
2016-09-18T05:28:55.658Z,93.11
2016-09-18T05:29:55.631Z,93.21
2016-09-18T05:30:55.608Z,93.4
2016-09-18T05:31:55.589Z,93.44
2016-09-18T05:32:55.567Z,93.3
2016-09-18T05:33:55.545Z,93.4
2016-09-18T05:34:55.529Z,93.21
2016-09-18T05:35:55.507Z,93.21
2016-09-18T05:36:55.480Z,93.4
2016-09-18T05:37:55.460Z,93.21
2016-09-18T05:38:55.437Z,93.21
2016-09-18T05:39:55.415Z,93.4
2016-09-18T05:40:55.392Z,93.21
2016-09-18T05:41:55.373Z,93.3
2016-09-18T05:42:55.348Z,93.3
2016-09-18T05:43:55.329Z,93.21
2016-09-18T05:44:55.304Z,93.21
2016-09-18T05:45:55.285Z,93.3
2016-09-18T05:46:55.261Z,93.3
2016-09-18T05:47:55.239Z,93.49
2016-09-18T05:48:55.219Z,93.4
2016-09-18T05:49:55.195Z,93.4
2016-09-18T05:50:55.177Z,93.4
2016-09-18T05:51:55.156Z,93.3
2016-09-18T05:52:55.132Z,93.3
2016-09-18T05:53:55.108Z,93.3
2016-09-18T05:54:55.084Z,93.3
2016-09-18T05:55:55.067Z,93.35
2016-09-18T05:56:55.044Z,93.21
2016-09-18T05:57:55.020Z,93.3
2016-09-18T05:58:54.999Z,92.73
2016-09-18T05:59:54.980Z,92.63
2016-09-18T06:00:54.957Z,92.73
2016-09-18T06:01:54.935Z,92.63
2016-09-18T06:02:54.914Z,93.4
2016-09-18T06:03:54.893Z,93.4
2016-09-18T06:04:54.871Z,93.3
2016-09-18T06:05:54.849Z,93.49
2016-09-18T06:06:54.827Z,93.59
2016-09-18T06:07:54.805Z,93.4
2016-09-18T06:08:54.783Z,93.3
2016-09-18T06:09:54.758Z,93.69
2016-09-18T06:10:54.739Z,93.3
2016-09-18T06:11:54.719Z,93.59
2016-09-18T06:12:54.694Z,92.73
2016-09-18T06:13:54.675Z,92.82
2016-09-18T06:14:54.652Z,92.54
2016-09-18T06:15:54.629Z,92.63
2016-09-18T06:16:54.608Z,92.82
2016-09-18T06:17:54.585Z,92.82
2016-09-18T06:18:54.565Z,92.77
2016-09-18T06:19:54.545Z,92.73
2016-09-18T06:20:54.521Z,92.82
2016-09-18T06:21:54.501Z,92.73
2016-09-18T06:22:54.477Z,92.44
2016-09-18T06:23:54.459Z,92.44
2016-09-18T06:24:54.435Z,92.77
2016-09-18T06:25:54.413Z,92.63
2016-09-18T06:26:54.397Z,92.87
2016-09-18T06:27:54.370Z,92.82
2016-09-18T06:28:54.348Z,92.25
2016-09-18T06:29:54.327Z,92.15
2016-09-18T06:30:54.306Z,92.58
2016-09-18T06:31:54.282Z,92.35
2016-09-18T06:32:54.261Z,92.58
2016-09-18T06:33:54.238Z,92.2
2016-09-18T06:34:54.218Z,92.2
2016-09-18T06:35:54.196Z,92.1
2016-09-18T06:36:54.176Z,92.2
2016-09-18T06:37:54.151Z,92.1
2016-09-18T06:38:54.130Z,92.2
2016-09-18T06:39:54.111Z,92.39
2016-09-18T06:40:54.093Z,91.53
2016-09-18T06:41:54.064Z,91.53
2016-09-18T06:42:54.045Z,91.72
2016-09-18T06:43:54.024Z,91.63
2016-09-18T06:44:54.001Z,91.91
2016-09-18T06:45:53.981Z,91.82
2016-09-18T06:46:53.958Z,91.82
2016-09-18T06:47:53.940Z,91.34
2016-09-18T06:48:53.914Z,91.24
2016-09-18T06:49:53.894Z,91.34
2016-09-18T06:50:53.873Z,91.34
2016-09-18T06:51:53.851Z,91.43
2016-09-18T06:52:53.835Z,91.53
2016-09-18T06:53:53.810Z,91.43
2016-09-18T06:54:53.792Z,91.43
2016-09-18T06:55:53.766Z,91.43
2016-09-18T06:56:53.745Z,90.95
2016-09-18T06:57:53.727Z,91.24
2016-09-18T06:58:53.705Z,91.82
2016-09-18T06:59:53.679Z,91.34
2016-09-18T07:00:53.659Z,91.34
2016-09-18T07:01:53.637Z,91.82
2016-09-18T07:02:53.619Z,91.63
2016-09-18T07:03:53.599Z,91.24
2016-09-18T07:04:53.575Z,91.05
2016-09-18T07:05:53.553Z,91.43
2016-09-18T07:06:53.534Z,91.63
2016-09-18T07:07:53.512Z,91.14
2016-09-18T07:08:53.491Z,90.95
2016-09-18T07:09:53.469Z,91.05
2016-09-18T07:10:53.448Z,90.95
2016-09-18T07:11:53.425Z,90.95
2016-09-18T07:12:53.407Z,91.05
2016-09-18T07:13:53.385Z,90.76
2016-09-18T07:14:53.367Z,90.86
2016-09-18T07:15:53.344Z,91.05
2016-09-18T07:16:53.325Z,90.86
2016-09-18T07:17:53.299Z,90.76
2016-09-18T07:18:53.278Z,90.76
2016-09-18T07:19:53.258Z,90.95
2016-09-18T07:20:53.236Z,90.76
2016-09-18T07:21:53.215Z,90.86
2016-09-18T07:22:53.194Z,90.86
2016-09-18T07:23:53.523Z,91.14
2016-09-18T07:24:53.152Z,90.95
2016-09-18T07:25:53.131Z,90.76
2016-09-18T07:26:53.109Z,91.05
2016-09-18T07:27:53.085Z,91.24
2016-09-18T07:28:53.066Z,91.24
2016-09-18T07:29:53.045Z,90.76
2016-09-18T07:30:53.024Z,90.57
2016-09-18T07:31:53.002Z,90.57
2016-09-18T07:32:52.980Z,90.76
2016-09-18T07:33:52.960Z,90.57
2016-09-18T07:34:52.937Z,90.47
2016-09-18T07:35:52.918Z,90.67
2016-09-18T07:36:52.897Z,90.76
2016-09-18T07:37:52.878Z,90.47
2016-09-18T07:38:52.853Z,90.67
2016-09-18T07:39:52.830Z,90.67
2016-09-18T07:40:52.808Z,90.95
2016-09-18T07:41:52.787Z,90.95
2016-09-18T07:42:52.767Z,91.05
2016-09-18T07:43:52.750Z,91.14
2016-09-18T07:44:52.724Z,90.95
2016-09-18T07:45:52.705Z,90.76
2016-09-18T07:46:52.684Z,91.14
2016-09-18T07:47:52.660Z,90.95
2016-09-18T07:48:52.638Z,90.47
2016-09-18T07:49:52.619Z,90.67
2016-09-18T07:50:52.599Z,90.67
2016-09-18T07:51:52.577Z,90.57
2016-09-18T07:52:52.556Z,90.67
2016-09-18T07:53:52.536Z,90.67
2016-09-18T07:54:52.508Z,90.28
2016-09-18T07:55:52.490Z,90.28
2016-09-18T07:56:52.469Z,90.38
2016-09-18T07:57:52.446Z,90.09
2016-09-18T07:58:52.426Z,90.47
2016-09-18T07:59:52.402Z,90.47
2016-09-18T08:00:52.383Z,90.28
2016-09-18T08:01:52.361Z,90.57
2016-09-18T08:02:52.339Z,90.47
2016-09-18T08:03:52.325Z,90.47
2016-09-18T08:04:52.296Z,90.57
2016-09-18T08:05:52.276Z,90.76
2016-09-18T08:06:52.254Z,90.67
2016-09-18T08:07:52.233Z,90.76
2016-09-18T08:08:52.214Z,90.86
2016-09-18T08:09:52.189Z,90.28
2016-09-18T08:10:52.168Z,90.38
2016-09-18T08:11:52.148Z,90.28
2016-09-18T08:12:52.126Z,90.57
2016-09-18T08:13:52.106Z,90.28
2016-09-18T08:14:52.086Z,90.19
2016-09-18T08:15:52.064Z,89.9
2016-09-18T08:16:52.044Z,90
2016-09-18T08:17:52.030Z,89.8
2016-09-18T08:18:52.010Z,89.85
2016-09-18T08:19:51.981Z,89.85
2016-09-18T08:20:51.961Z,90.09
2016-09-18T08:21:51.940Z,89.75
2016-09-18T08:22:51.920Z,90.04
2016-09-18T08:23:51.904Z,89.94
2016-09-18T08:24:51.895Z,89.37
2016-09-18T08:25:51.863Z,89.65
2016-09-18T08:26:51.837Z,89.65
2016-09-18T08:27:51.828Z,89.56
2016-09-18T08:28:51.809Z,89.27
2016-09-18T08:29:51.775Z,88.98
2016-09-18T08:30:51.751Z,88.89
2016-09-18T08:31:51.737Z,88.89
2016-09-18T08:32:51.712Z,89.18
2016-09-18T08:33:51.697Z,88.98
2016-09-18T08:34:51.675Z,88.7
2016-09-18T08:35:51.652Z,88.79
2016-09-18T08:36:51.642Z,88.51
2016-09-18T08:37:51.620Z,88.31
2016-09-18T08:38:51.593Z,88.02
2016-09-18T08:39:51.570Z,87.84
2016-09-18T08:40:51.551Z,87.84
2016-09-18T08:41:51.529Z,88.41
2016-09-18T08:42:51.512Z,88.6
2016-09-18T08:43:51.491Z,88.02
2016-09-18T08:44:51.469Z,88.51
2016-09-18T08:45:51.449Z,88.02
2016-09-18T08:46:51.432Z,87.84
2016-09-18T08:47:51.408Z,88.12
2016-09-18T08:48:51.387Z,88.45
2016-09-18T08:49:51.368Z,88.31
2016-09-18T08:50:51.348Z,88.17
2016-09-18T08:51:51.334Z,88.07
2016-09-18T08:52:51.307Z,88.07
2016-09-18T08:53:51.287Z,87.88
2016-09-18T08:54:51.269Z,87.98
2016-09-18T08:55:51.248Z,87.4
2016-09-18T08:56:51.224Z,87.78
2016-09-18T08:57:51.207Z,87.88
2016-09-18T08:58:51.186Z,87.4
2016-09-18T08:59:51.167Z,87.59
2016-09-18T09:00:51.148Z,87.68
2016-09-18T09:01:51.134Z,87.68
2016-09-18T09:02:51.108Z,87.59
2016-09-18T09:03:51.083Z,87.68
2016-09-18T09:04:51.067Z,87.88
2016-09-18T09:05:51.046Z,87.01
2016-09-18T09:06:51.027Z,86.92
2016-09-18T09:07:51.005Z,86.44
2016-09-18T09:08:50.987Z,87.11
2016-09-18T09:09:50.966Z,87.11
2016-09-18T09:10:50.953Z,86.63
2016-09-18T09:11:50.929Z,86.92
2016-09-18T09:12:50.905Z,86.54
2016-09-18T09:13:50.896Z,87.11
2016-09-18T09:14:50.866Z,86.63
2016-09-18T09:15:50.847Z,86.63
2016-09-18T09:16:50.826Z,86.82
2016-09-18T09:17:50.808Z,86.92
2016-09-18T09:18:50.794Z,86.54
2016-09-18T09:19:50.772Z,86.54
2016-09-18T09:20:50.751Z,86.54
2016-09-18T09:21:50.729Z,86.44
2016-09-18T09:22:50.707Z,86.05
2016-09-18T09:23:50.691Z,86.25
2016-09-18T09:24:50.671Z,86.05
2016-09-18T09:25:50.648Z,85.86
2016-09-18T09:26:50.628Z,86.15
2016-09-18T09:27:50.612Z,86.25
2016-09-18T09:28:50.590Z,85.58
2016-09-18T09:29:50.570Z,85.58
2016-09-18T09:30:50.551Z,85.77
2016-09-18T09:31:50.535Z,85.71
2016-09-18T09:32:50.515Z,85.91
2016-09-18T09:33:50.494Z,85.42
2016-09-18T09:34:50.477Z,85.42
2016-09-18T09:35:50.459Z,85.14
2016-09-18T09:36:50.440Z,85.37
2016-09-18T09:37:50.421Z,84.99
2016-09-18T09:38:50.402Z,85.08
2016-09-18T09:39:50.383Z,84.41
2016-09-18T09:40:50.365Z,84.74
2016-09-18T09:41:50.350Z,83.87
2016-09-18T09:42:50.332Z,83.11
2016-09-18T09:43:50.314Z,82.82
2016-09-18T09:44:50.294Z,82.82
2016-09-18T09:45:50.277Z,83.11
2016-09-18T09:46:50.259Z,82.48
2016-09-18T09:47:50.247Z,82.48
2016-09-18T09:48:50.225Z,81.99
2016-09-18T09:49:50.207Z,81.32
2016-09-18T09:50:50.188Z,81.71
2016-09-18T09:51:50.171Z,81.56
2016-09-18T09:52:50.155Z,81.17
2016-09-18T09:53:50.139Z,81.07
2016-09-18T09:54:50.122Z,81.07
2016-09-18T09:55:50.104Z,80.6
2016-09-18T09:56:50.087Z,80.6
2016-09-18T09:57:50.072Z,80.88
2016-09-18T09:58:50.053Z,80.88
2016-09-18T09:59:50.040Z,80.6
2016-09-18T10:00:50.021Z,80.5
2016-09-18T10:01:50.003Z,80.11
2016-09-18T10:02:49.987Z,80.3
2016-09-18T10:03:49.972Z,80.3
2016-09-18T10:04:49.954Z,80.02
2016-09-18T10:05:49.940Z,80.02
2016-09-18T10:06:49.919Z,80.21
2016-09-18T10:07:49.901Z,80.25
2016-09-18T10:08:49.886Z,79.58
2016-09-18T10:09:49.866Z,79.86
2016-09-18T10:10:49.852Z,79.28
2016-09-18T10:11:49.835Z,79.48
2016-09-18T10:12:49.819Z,78.81
2016-09-18T10:13:49.799Z,78.71
2016-09-18T10:14:49.791Z,78.9
2016-09-18T10:15:49.770Z,79.1
2016-09-18T10:16:49.752Z,78.42
2016-09-18T10:17:49.739Z,77.65
2016-09-18T10:18:49.717Z,78.61
2016-09-18T10:19:49.707Z,77.84
2016-09-18T10:20:49.687Z,78.52
2016-09-18T10:21:49.671Z,77.65
2016-09-18T10:22:49.653Z,77.56
2016-09-18T10:23:49.641Z,76.98
2016-09-18T10:24:49.620Z,77.08
2016-09-18T10:25:49.609Z,76.59
2016-09-18T10:26:49.586Z,76.78
2016-09-18T10:27:49.572Z,77.42
2016-09-18T10:28:49.556Z,77.17
2016-09-18T10:29:49.539Z,76.98
2016-09-18T10:30:49.528Z,76.98
2016-09-18T10:31:49.503Z,77.46
2016-09-18T10:32:49.490Z,77.26
2016-09-18T10:33:49.472Z,76.31
2016-09-18T10:34:49.458Z,76.21
2016-09-18T10:35:49.438Z,76.59
2016-09-18T10:36:49.423Z,75.63
2016-09-18T10:37:49.404Z,75.49
2016-09-18T10:38:49.389Z,75.49
2016-09-18T10:39:49.370Z,75.88
2016-09-18T10:40:49.355Z,76.56
2016-09-18T10:41:49.347Z,76.07
2016-09-18T10:42:49.319Z,75.69
2016-09-18T10:43:49.301Z,75.31
2016-09-18T10:44:49.285Z,75.31
2016-09-18T10:45:49.266Z,75.59
2016-09-18T10:46:49.255Z,75.69
2016-09-18T10:47:49.234Z,75.88
2016-09-18T10:48:49.216Z,76.26
2016-09-18T10:49:49.198Z,76.56
2016-09-18T10:50:49.183Z,76.5
2016-09-18T10:51:49.164Z,76.4
2016-09-18T10:52:49.150Z,76.59
2016-09-18T10:53:49.130Z,76.59
2016-09-18T10:54:49.112Z,76.5
2016-09-18T10:55:49.097Z,76.4
2016-09-18T10:56:49.079Z,76.01
2016-09-18T10:57:49.062Z,76.34
2016-09-18T10:58:49.046Z,76.06
2016-09-18T10:59:49.030Z,76.06
2016-09-18T11:00:49.014Z,75.76
2016-09-18T11:01:49.003Z,75.76
2016-09-18T11:02:48.981Z,75.76
2016-09-18T11:03:48.965Z,75.51
2016-09-18T11:04:48.949Z,75.51
2016-09-18T11:05:49.231Z,75.03
2016-09-18T11:06:48.917Z,74.93
2016-09-18T11:07:48.901Z,74.55
2016-09-18T11:08:48.885Z,74.65
2016-09-18T11:09:48.875Z,74.74
2016-09-18T11:10:48.855Z,74.26
2016-09-18T11:11:48.836Z,73.97
2016-09-18T11:12:48.822Z,74.36
2016-09-18T11:13:48.810Z,74.16
2016-09-18T11:14:48.789Z,73.97
2016-09-18T11:15:48.768Z,73.68
2016-09-18T11:16:48.758Z,73.97
2016-09-18T11:17:48.737Z,74.07
2016-09-18T11:18:48.723Z,74.22
2016-09-18T11:19:48.702Z,74.45
2016-09-18T11:20:48.688Z,73.78
2016-09-18T11:21:48.671Z,74.16
2016-09-18T11:22:48.653Z,74.36
2016-09-18T11:23:48.641Z,74.07
2016-09-18T11:24:48.623Z,73.88
2016-09-18T11:25:48.607Z,74.16
2016-09-18T11:26:48.589Z,73.97
2016-09-18T11:27:48.576Z,73.58
2016-09-18T11:28:48.561Z,73.53
2016-09-18T11:29:48.544Z,72.95
2016-09-18T11:30:48.527Z,72.33
2016-09-18T11:31:48.511Z,72.72
2016-09-18T11:32:48.494Z,72.72
2016-09-18T11:33:48.477Z,72.27
2016-09-18T11:34:48.463Z,72.81
2016-09-18T11:35:48.446Z,72.56
2016-09-18T11:36:48.430Z,72.47
2016-09-18T11:37:48.414Z,71.79
2016-09-18T11:38:48.400Z,72.08
2016-09-18T11:39:48.382Z,71.79
2016-09-18T11:40:48.369Z,71.98
2016-09-18T11:41:48.352Z,71.79
2016-09-18T11:42:48.337Z,71.6
2016-09-18T11:43:48.321Z,71.6
2016-09-18T11:44:48.306Z,71.7
2016-09-18T11:45:48.289Z,71.41
2016-09-18T11:46:48.281Z,71.7
2016-09-18T11:47:48.261Z,71.41
2016-09-18T11:48:48.241Z,71.22
2016-09-18T11:49:48.226Z,71.02
2016-09-18T11:50:48.212Z,70.44
2016-09-18T11:51:48.205Z,70.44
2016-09-18T11:52:48.178Z,70.06
2016-09-18T11:53:48.164Z,69.38
2016-09-18T11:54:48.148Z,68.9
2016-09-18T11:55:48.142Z,68.58
2016-09-18T11:56:48.116Z,68.68
2016-09-18T11:57:48.101Z,68.96
2016-09-18T11:58:48.083Z,68.68
2016-09-18T11:59:48.089Z,68.87
2016-09-18T12:00:48.049Z,68.68
2016-09-18T12:01:48.033Z,68.77
2016-09-18T12:02:48.015Z,68.38
2016-09-18T12:03:48.000Z,68.29
2016-09-18T12:04:47.981Z,68.87
2016-09-18T12:05:47.965Z,68.1
2016-09-18T12:06:47.949Z,68.19
2016-09-18T12:07:47.945Z,68
2016-09-18T12:08:47.917Z,67.23
2016-09-18T12:09:47.900Z,67.33
2016-09-18T12:10:47.884Z,66.97
2016-09-18T12:17:10.947Z,63.82
2016-09-18T12:18:10.929Z,63.73
2016-09-18T12:19:10.914Z,63.15
2016-09-18T12:20:10.900Z,62.86
2016-09-18T12:21:10.883Z,62.57
2016-09-18T12:22:10.869Z,62.28
2016-09-18T12:23:10.855Z,61.71
2016-09-18T12:24:10.835Z,61.22
2016-09-18T12:25:10.820Z,61.03
2016-09-18T12:26:10.804Z,59.9
2016-09-18T12:27:10.785Z,59.9
2016-09-18T12:28:10.774Z,59.32
2016-09-18T12:29:10.758Z,58.36
2016-09-18T12:30:10.740Z,58.17
2016-09-18T12:31:10.729Z,57.87
2016-09-18T12:32:10.711Z,57.14
2016-09-18T12:33:10.695Z,56.94
2016-09-18T12:34:10.681Z,56.46
2016-09-18T12:35:10.665Z,55.78
2016-09-18T12:36:10.650Z,56.04
2016-09-18T12:37:10.634Z,55.94
2016-09-18T12:38:10.632Z,55.94
2016-09-18T12:39:10.603Z,55.78
2016-09-18T12:40:10.588Z,55.59
2016-09-18T12:41:10.572Z,55.4
2016-09-18T12:42:10.561Z,55.1
2016-09-18T12:43:10.541Z,55.1
2016-09-18T12:44:10.530Z,55.01
2016-09-18T12:45:10.514Z,55.08
2016-09-18T12:46:10.497Z,55.08
2016-09-18T12:47:10.484Z,54.98
2016-09-18T12:48:10.467Z,55.36
2016-09-18T12:49:10.456Z,55.56
2016-09-18T12:50:10.437Z,55.56
2016-09-18T12:51:10.420Z,55.92
2016-09-18T12:52:10.403Z,55.92
2016-09-18T12:53:10.392Z,55.92
2016-09-18T12:54:10.374Z,56.14
2016-09-18T12:55:10.359Z,55.54
2016-09-18T12:56:10.339Z,55.18
2016-09-18T12:57:10.328Z,54.98
2016-09-18T12:58:10.310Z,54.6
2016-09-18T12:59:10.293Z,54.38
2016-09-18T13:00:10.280Z,54.21
2016-09-18T13:01:10.263Z,54.31
2016-09-18T13:02:10.248Z,53.83